Magnus Heinason — OW2252 — position and weather

sailwx.info

Track history (hours):
 
Tides and Currents Weather Stations Pressure Air Temp Water Temp Dewpoint Dewpoint Depression Visibility Wind Speed Wind Dir Waves Ship Positions

Oceanographic research ship Magnus Heinason (Faroe Islands)

Detailed information on ship capabilities available from ARCUS's ALIAS (Arctic Logistics Information and Support) project.

Last reported at 2017-Mar-12 09:14 UTC. Time now 2017-Mar-30 04:48 UTC.
Position N 62°12' W 005°37'.
Warning: this ship's position is 17 days out of date.

Length 44 m; draft 4 m.

Type: . MMSI: 231041000.

Date/timePositionNaut miles runAvg speedWind from/ knotsBaromVisibWave heightAir tempDewpointWater temp
2017-Mar-12 09:14N 62°12' W 005°37'5 6.1
2017-Mar-12 08:22N 62°06' W 005°40'3 4.1
2017-Mar-12 07:32N 62°03' W 005°42'2 2.1
2017-Mar-12 06:28N 62°01' W 005°41'1 0.6
2017-Mar-12 05:25N 62°01' W 005°42'2 2.3
2017-Mar-12 04:27N 62°01' W 005°46'1 0.6
2017-Mar-12 03:32N 62°01' W 005°45'29 1.1
2017-Mar-11 02:32N 62°00' W 006°46'0 0.0
2017-Mar-11 01:31N 62°00' W 006°46'0 0.0
2017-Mar-11 00:33N 62°00' W 006°46'0 0.0
2017-Mar-10 23:33N 62°00' W 006°46'0 0.0
2017-Mar-10 22:26N 62°00' W 006°46'0 0.0
2017-Mar-10 21:31N 62°00' W 006°46'0 0.0
2017-Mar-10 20:22N 62°00' W 006°46'0 0.0
2017-Mar-10 18:32N 62°00' W 006°46'0 0.0
2017-Mar-10 17:33N 62°00' W 006°46'0 0.0
2017-Mar-10 16:30N 62°00' W 006°46'0 0.0
2017-Mar-10 15:23N 62°00' W 006°46'0 0.0
2017-Mar-10 14:30N 62°00' W 006°46'0 0.0
2017-Mar-10 13:32N 62°00' W 006°46'0 0.0
2017-Mar-10 12:16N 62°00' W 006°46'0 0.0
2017-Mar-10 11:31N 62°00' W 006°46'0 0.0
2017-Mar-10 10:25N 62°00' W 006°46'0 0.0
2017-Mar-10 09:32N 62°00' W 006°46'0 0.0
2017-Mar-10 08:21N 62°00' W 006°46'0 0.0
2017-Mar-10 07:32N 62°00' W 006°46'0 0.0
2017-Mar-10 06:33N 62°00' W 006°46'0 0.0
2017-Mar-10 05:31N 62°00' W 006°46'0 0.0
2017-Mar-10 04:33N 62°00' W 006°46'0 0.0
2017-Mar-10 03:30N 62°00' W 006°46'0 0.0
2017-Mar-10 02:30N 62°00' W 006°46'3 2.6
2017-Mar-10 01:33N 61°58' W 006°43'9 8.7
2017-Mar-10 00:30N 61°50' W 006°34'12 0.2
2017-Mar-08 00:33N 62°00' W 006°46'0 0.0
2017-Mar-07 23:33N 62°00' W 006°46'0 0.0
2017-Mar-07 22:33N 62°00' W 006°46'0 0.0
2017-Mar-07 21:33N 62°00' W 006°46'0 0.0
2017-Mar-07 20:33N 62°00' W 006°46'0 0.0
2017-Mar-07 19:30N 62°00' W 006°46'0 0.0
2017-Mar-07 18:23N 62°00' W 006°46'0 0.0
2017-Mar-07 17:32N 62°00' W 006°46'0 0.0
2017-Mar-07 16:27N 62°00' W 006°46'0 0.0
2017-Mar-07 02:27N 62°00' W 006°46'0 0.0
2017-Mar-07 01:33N 62°00' W 006°46'0 0.0
2017-Mar-07 00:33N 62°00' W 006°46'0 0.0
2017-Mar-06 23:28N 62°00' W 006°46'0 0.0
2017-Mar-06 22:32N 62°00' W 006°46'5 5.0
2017-Mar-06 21:27N 62°04' W 006°39'7 7.2
2017-Mar-06 20:27N 62°11' W 006°36'8 8.6
2017-Mar-06 19:32N 62°17' W 006°47'9 9.0
2017-Mar-06 18:31N 62°26' W 006°56'13 8.8
2017-Mar-06 17:05N 62°38' W 006°60'2 2.7
2017-Mar-06 16:24N 62°38' W 007°04'31 1.0
2017-Mar-05 10:17N 62°16' W 007°52'11 2.2
2017-Mar-05 05:25N 62°11' W 007°32'1 0.8
2017-Mar-05 04:30N 62°11' W 007°30'0 0.5
2017-Mar-05 03:32N 62°11' W 007°29'  
2017-Mar-02 15:33N 61°42' W 007°44'8 2.5
2017-Mar-02 12:16N 61°40' W 007°27'4 4.1
2017-Mar-02 11:21N 61°43' W 007°23'3 3.4
2017-Mar-02 10:27N 61°46' W 007°22'4 3.3
2017-Mar-02 09:20N 61°50' W 007°21'  
Track history (hours):
 
Tides and Currents Weather Stations Pressure Air Temp Water Temp Dewpoint Dewpoint Depression Visibility Wind Speed Wind Dir Waves Ship Positions

Oceanographic research ship Magnus Heinason (Faroe Islands)

Detailed information on ship capabilities available from ARCUS's ALIAS (Arctic Logistics Information and Support) project.

Last reported at 2017-Mar-12 09:14 UTC. Time now 2017-Mar-30 04:48 UTC.
Position N 62°12' W 005°37'.
Warning: this ship's position is 17 days out of date.

Length 44 m; draft 4 m.

Type: . MMSI: 231041000.

Date/timePositionNaut miles runAvg speedWind from/ knotsBaromVisibWave heightAir tempDewpointWater temp
2017-Mar-12 09:14N 62°12' W 005°37'5 6.1
2017-Mar-12 08:22N 62°06' W 005°40'3 4.1
2017-Mar-12 07:32N 62°03' W 005°42'2 2.1
2017-Mar-12 06:28N 62°01' W 005°41'1 0.6
2017-Mar-12 05:25N 62°01' W 005°42'2 2.3
2017-Mar-12 04:27N 62°01' W 005°46'1 0.6
2017-Mar-12 03:32N 62°01' W 005°45'29 1.1
2017-Mar-11 02:32N 62°00' W 006°46'0 0.0
2017-Mar-11 01:31N 62°00' W 006°46'0 0.0
2017-Mar-11 00:33N 62°00' W 006°46'0 0.0
2017-Mar-10 23:33N 62°00' W 006°46'0 0.0
2017-Mar-10 22:26N 62°00' W 006°46'0 0.0
2017-Mar-10 21:31N 62°00' W 006°46'0 0.0
2017-Mar-10 20:22N 62°00' W 006°46'0 0.0
2017-Mar-10 18:32N 62°00' W 006°46'0 0.0
2017-Mar-10 17:33N 62°00' W 006°46'0 0.0
2017-Mar-10 16:30N 62°00' W 006°46'0 0.0
2017-Mar-10 15:23N 62°00' W 006°46'0 0.0
2017-Mar-10 14:30N 62°00' W 006°46'0 0.0
2017-Mar-10 13:32N 62°00' W 006°46'0 0.0
2017-Mar-10 12:16N 62°00' W 006°46'0 0.0
2017-Mar-10 11:31N 62°00' W 006°46'0 0.0
2017-Mar-10 10:25N 62°00' W 006°46'0 0.0
2017-Mar-10 09:32N 62°00' W 006°46'0 0.0
2017-Mar-10 08:21N 62°00' W 006°46'0 0.0
2017-Mar-10 07:32N 62°00' W 006°46'0 0.0
2017-Mar-10 06:33N 62°00' W 006°46'0 0.0
2017-Mar-10 05:31N 62°00' W 006°46'0 0.0
2017-Mar-10 04:33N 62°00' W 006°46'0 0.0
2017-Mar-10 03:30N 62°00' W 006°46'0 0.0
2017-Mar-10 02:30N 62°00' W 006°46'3 2.6
2017-Mar-10 01:33N 61°58' W 006°43'9 8.7
2017-Mar-10 00:30N 61°50' W 006°34'12 0.2
2017-Mar-08 00:33N 62°00' W 006°46'0 0.0
2017-Mar-07 23:33N 62°00' W 006°46'0 0.0
2017-Mar-07 22:33N 62°00' W 006°46'0 0.0
2017-Mar-07 21:33N 62°00' W 006°46'0 0.0
2017-Mar-07 20:33N 62°00' W 006°46'0 0.0
2017-Mar-07 19:30N 62°00' W 006°46'0 0.0
2017-Mar-07 18:23N 62°00' W 006°46'0 0.0
2017-Mar-07 17:32N 62°00' W 006°46'0 0.0
2017-Mar-07 16:27N 62°00' W 006°46'0 0.0
2017-Mar-07 02:27N 62°00' W 006°46'0 0.0
2017-Mar-07 01:33N 62°00' W 006°46'0 0.0
2017-Mar-07 00:33N 62°00' W 006°46'0 0.0
2017-Mar-06 23:28N 62°00' W 006°46'0 0.0
2017-Mar-06 22:32N 62°00' W 006°46'5 5.0
2017-Mar-06 21:27N 62°04' W 006°39'7 7.2
2017-Mar-06 20:27N 62°11' W 006°36'8 8.6
2017-Mar-06 19:32N 62°17' W 006°47'9 9.0
2017-Mar-06 18:31N 62°26' W 006°56'13 8.8
2017-Mar-06 17:05N 62°38' W 006°60'2 2.7
2017-Mar-06 16:24N 62°38' W 007°04'31 1.0
2017-Mar-05 10:17N 62°16' W 007°52'11 2.2
2017-Mar-05 05:25N 62°11' W 007°32'1 0.8
2017-Mar-05 04:30N 62°11' W 007°30'0 0.5
2017-Mar-05 03:32N 62°11' W 007°29'  
2017-Mar-02 15:33N 61°42' W 007°44'8 2.5
2017-Mar-02 12:16N 61°40' W 007°27'4 4.1
2017-Mar-02 11:21N 61°43' W 007°23'3 3.4
2017-Mar-02 10:27N 61°46' W 007°22'4 3.3
2017-Mar-02 09:20N 61°50' W 007°21'  

Dump ship's entire track history